Time;durP1;ratioP1;P1;durP2;ratioP2;P2;SDS_P1;SDS_P2;PMS_P1;PMS_P2;Temp;Humidity;BMP_temperature;BMP_pressure;BME280_temperature;BME280_humidity;BME280_pressure;Samples;Min_cycle;Max_cycle;Signal;HPM_P1;HPM_P2
2023/05/19 00:01:42;;;;;;;24.98;15.40;;;12.00;99.90;;;;;;5014073;28;20435;-61
2023/05/19 00:04:11;;;;;;;27.50;16.02;;;12.00;99.90;;;;;;5014414;28;20048;-61
2023/05/19 00:06:37;;;;;;;28.17;15.30;;;12.00;99.90;;;;;;5014462;28;20080;-61
2023/05/19 00:09:06;;;;;;;29.52;16.42;;;12.00;99.90;;;;;;5014295;28;20028;-60
2023/05/19 00:11:35;;;;;;;31.17;16.60;;;11.90;99.90;;;;;;5014376;28;20081;-61
2023/05/19 00:14:02;;;;;;;28.75;16.52;;;11.90;99.90;;;;;;5013838;28;20034;-61
2023/05/19 00:16:29;;;;;;;32.33;17.27;;;12.00;99.90;;;;;;5014259;28;20038;-61
2023/05/19 00:18:59;;;;;;;36.95;19.52;;;11.90;99.90;;;;;;5014382;28;20129;-61
2023/05/19 00:21:26;;;;;;;45.90;23.10;;;11.90;99.90;;;;;;5014227;28;20505;-61
2023/05/19 00:23:52;;;;;;;55.42;25.17;;;11.90;99.90;;;;;;5014104;28;20056;-61
2023/05/19 00:26:18;;;;;;;39.63;19.52;;;11.80;99.90;;;;;;5014446;28;20418;-61
2023/05/19 00:28:53;;;;;;;36.28;17.88;;;11.80;99.90;;;;;;5014237;28;20022;-61
2023/05/19 00:31:19;;;;;;;31.83;17.25;;;11.90;99.90;;;;;;5014354;28;20025;-61
2023/05/19 00:33:45;;;;;;;39.67;19.50;;;11.90;99.90;;;;;;4998677;28;20029;-61
2023/05/19 00:36:12;;;;;;;37.38;18.00;;;11.90;99.90;;;;;;5017886;28;20504;-60
2023/05/19 00:38:38;;;;;;;29.27;15.95;;;11.90;99.90;;;;;;5000155;28;20030;-61
2023/05/19 00:41:05;;;;;;;29.85;17.02;;;11.90;99.90;;;;;;5017871;28;20034;-61
2023/05/19 00:43:35;;;;;;;37.22;16.40;;;11.90;99.90;;;;;;4999941;28;20518;-61
2023/05/19 00:46:02;;;;;;;34.90;17.73;;;11.80;99.90;;;;;;5017743;28;20114;-60
2023/05/19 00:48:28;;;;;;;35.95;16.83;;;11.80;99.90;;;;;;4999843;28;20061;-61
2023/05/19 00:51:00;;;;;;;28.75;15.68;;;11.80;99.90;;;;;;5000043;28;20029;-61
2023/05/19 00:53:27;;;;;;;30.02;16.60;;;11.80;99.90;;;;;;4999974;28;20030;-61
2023/05/19 00:55:53;;;;;;;34.92;18.60;;;11.80;99.90;;;;;;5017455;28;20032;-61
2023/05/19 00:58:19;;;;;;;31.77;16.90;;;11.90;99.90;;;;;;4999923;28;20105;-61
2023/05/19 01:00:45;;;;;;;26.67;15.60;;;11.90;99.90;;;;;;5017476;28;20030;-61
2023/05/19 01:03:11;;;;;;;22.65;15.38;;;12.00;99.90;;;;;;5017194;28;20547;-61
2023/05/19 01:05:40;;;;;;;29.02;15.32;;;12.00;99.90;;;;;;5017350;28;20025;-61
2023/05/19 01:08:09;;;;;;;28.58;15.60;;;12.00;99.90;;;;;;5017328;28;20052;-61
2023/05/19 01:10:36;;;;;;;28.20;15.32;;;11.90;99.90;;;;;;5016993;28;20030;-61
2023/05/19 01:13:03;;;;;;;24.17;14.68;;;11.80;99.90;;;;;;5017202;28;20033;-61
2023/05/19 01:15:35;;;;;;;26.73;13.85;;;11.90;99.90;;;;;;5017120;28;20026;-61
2023/05/19 01:18:09;;;;;;;21.85;13.85;;;12.00;99.90;;;;;;5017537;28;20121;-60
2023/05/19 01:20:51;;;;;;;25.75;14.68;;;12.00;99.90;;;;;;4999581;28;20089;-61
2023/05/19 01:23:43;;;;;;;21.35;12.35;;;12.00;99.90;;;;;;5017124;28;20056;-61
2023/05/19 01:26:31;;;;;;;21.42;13.60;;;12.00;99.90;;;;;;5012439;28;20065;-61
2023/05/19 01:29:15;;;;;;;24.42;14.43;;;12.00;99.90;;;;;;5016986;28;20030;-61
2023/05/19 01:31:43;;;;;;;20.90;12.77;;;12.00;99.90;;;;;;5016908;28;20117;-61
2023/05/19 01:34:11;;;;;;;23.92;14.23;;;12.00;99.90;;;;;;5017150;28;20115;-61
2023/05/19 01:36:43;;;;;;;21.38;13.02;;;11.90;99.90;;;;;;5016711;28;20499;-61
2023/05/19 01:39:10;;;;;;;23.40;12.90;;;11.90;99.90;;;;;;5016824;28;20471;-61
2023/05/19 01:41:38;;;;;;;21.45;11.73;;;12.00;99.90;;;;;;5016802;28;20544;-61
2023/05/19 01:44:05;;;;;;;26.83;13.27;;;11.90;99.90;;;;;;5016375;28;20030;-61
2023/05/19 01:46:31;;;;;;;24.23;13.55;;;11.90;99.90;;;;;;5016515;28;20033;-61
2023/05/19 01:48:57;;;;;;;20.45;13.05;;;12.00;99.90;;;;;;5016526;28;20089;-61
2023/05/19 01:51:23;;;;;;;22.23;12.40;;;12.00;99.90;;;;;;5016858;28;20026;-61
2023/05/19 01:53:50;;;;;;;24.33;12.73;;;12.10;99.90;;;;;;5016493;28;20069;-61
2023/05/19 01:56:22;;;;;;;21.85;12.27;;;12.10;99.90;;;;;;4998904;28;20116;-60
2023/05/19 01:58:57;;;;;;;20.88;12.70;;;12.10;99.90;;;;;;4998937;28;20121;-61
2023/05/19 02:01:40;;;;;;;23.17;12.75;;;12.00;99.90;;;;;;4998789;28;20026;-61
2023/05/19 02:04:23;;;;;;;23.13;13.02;;;12.00;99.90;;;;;;5016346;28;20101;-61
2023/05/19 02:06:57;;;;;;;24.80;13.55;;;11.90;99.90;;;;;;5016211;28;20045;-61
2023/05/19 02:09:37;;;;;;;23.38;12.75;;;11.90;99.90;;;;;;5016024;28;20061;-61
2023/05/19 02:12:22;;;;;;;21.20;13.40;;;12.00;99.90;;;;;;4998437;28;20073;-61
2023/05/19 02:15:13;;;;;;;26.88;14.07;;;11.90;99.90;;;;;;4998398;28;20033;-61
2023/05/19 02:17:40;;;;;;;;;;;12.00;99.90;;;;;;4999136;28;20026;-61
2023/05/19 02:20:09;;;;;;;25.52;13.18;;;12.00;99.90;;;;;;4998375;28;20025;-61
2023/05/19 02:22:35;;;;;;;25.17;13.68;;;12.00;99.90;;;;;;4998484;28;20030;-60
2023/05/19 02:25:01;;;;;;;28.13;14.13;;;11.90;99.90;;;;;;5015903;28;20487;-61
2023/05/19 02:27:28;;;;;;;27.58;14.52;;;11.80;99.90;;;;;;5015754;28;20022;-61
2023/05/19 02:29:55;;;;;;;26.80;13.55;;;11.90;99.90;;;;;;5015741;28;20022;-61
2023/05/19 02:32:21;;;;;;;25.52;14.63;;;11.90;99.90;;;;;;5016103;28;20026;-61
2023/05/19 02:34:48;;;;;;;24.83;13.35;;;11.90;99.90;;;;;;5015680;28;20022;-60
2023/05/19 02:37:14;;;;;;;24.05;14.05;;;11.90;99.90;;;;;;5015676;28;20109;-61
2023/05/19 02:39:43;;;;;;;31.45;18.52;;;11.90;99.90;;;;;;4998217;28;20041;-61
2023/05/19 02:42:11;;;;;;;28.33;16.83;;;12.00;99.90;;;;;;5015878;28;20387;-61
2023/05/19 02:44:37;;;;;;;27.90;15.38;;;11.80;99.90;;;;;;5015467;28;20112;-61
2023/05/19 02:47:03;;;;;;;25.92;15.63;;;11.80;99.90;;;;;;4997997;28;20070;-61
2023/05/19 02:49:29;;;;;;;28.27;15.82;;;11.90;99.90;;;;;;4997742;28;20025;-61
2023/05/19 02:51:56;;;;;;;26.05;15.82;;;11.90;99.90;;;;;;5015400;28;20030;-61
2023/05/19 02:54:22;;;;;;;30.80;16.65;;;11.80;99.90;;;;;;4997803;28;20619;-61
2023/05/19 02:56:48;;;;;;;27.45;15.02;;;11.90;99.90;;;;;;5014651;28;20080;-60
2023/05/19 02:59:14;;;;;;;38.85;16.05;;;11.80;99.90;;;;;;5015304;28;20105;-59
2023/05/19 03:01:40;;;;;;;36.63;16.45;;;11.90;99.90;;;;;;4997530;28;20033;-58
2023/05/19 03:04:06;;;;;;;36.85;17.45;;;11.90;99.90;;;;;;4997479;28;20411;-59
2023/05/19 03:06:33;;;;;;;33.13;18.77;;;11.80;99.90;;;;;;5015076;28;20030;-59
2023/05/19 03:08:58;;;;;;;34.65;18.80;;;12.00;99.90;;;;;;4997310;28;20033;-59
2023/05/19 03:11:25;;;;;;;36.90;18.95;;;12.00;99.90;;;;;;5014748;28;20120;-58
2023/05/19 03:13:51;;;;;;;35.33;18.63;;;12.00;99.90;;;;;;4997392;28;20034;-59
2023/05/19 03:16:17;;;;;;;35.83;20.60;;;12.10;99.90;;;;;;5015012;28;20022;-58
2023/05/19 03:18:43;;;;;;;33.85;19.67;;;12.20;99.90;;;;;;4997034;28;20037;-59
2023/05/19 03:21:09;;;;;;;37.08;20.27;;;12.20;99.90;;;;;;5014965;28;20501;-59
2023/05/19 03:23:35;;;;;;;38.35;19.65;;;12.20;99.90;;;;;;5014922;28;20080;-59
2023/05/19 03:26:01;;;;;;;36.55;20.17;;;12.10;99.90;;;;;;4997184;28;20030;-58
2023/05/19 03:28:27;;;;;;;35.25;19.60;;;12.00;99.90;;;;;;5014847;28;20054;-58
2023/05/19 03:30:53;;;;;;;34.95;19.48;;;11.90;99.90;;;;;;4997086;28;20476;-58
2023/05/19 03:33:23;;;;;;;37.70;18.90;;;11.90;99.90;;;;;;4997048;28;20026;-59
2023/05/19 03:35:51;;;;;;;41.17;21.40;;;11.90;99.90;;;;;;4997147;28;20121;-59
2023/05/19 03:38:18;;;;;;;38.60;19.70;;;12.00;99.90;;;;;;4997168;28;20029;-59
2023/05/19 03:40:56;;;;;;;33.85;18.88;;;12.00;99.90;;;;;;4996988;28;20167;-59
2023/05/19 03:43:22;;;;;;;35.78;19.73;;;12.10;99.90;;;;;;4996952;28;20387;-59
2023/05/19 03:45:54;;;;;;;31.40;19.15;;;12.10;99.90;;;;;;4997069;28;20018;-59
2023/05/19 03:48:43;;;;;;;34.50;17.73;;;12.10;99.90;;;;;;5014325;28;20026;-59
2023/05/19 03:51:15;;;;;;;25.67;16.90;;;12.00;99.90;;;;;;5014799;28;20049;-59
2023/05/19 03:53:42;;;;;;;28.10;16.05;;;12.10;99.90;;;;;;4997039;28;20076;-59
2023/05/19 03:56:12;;;;;;;34.30;16.95;;;12.10;99.90;;;;;;4997282;28;20034;-59
2023/05/19 03:58:42;;;;;;;34.20;17.05;;;12.10;99.90;;;;;;4996827;28;20525;-59
2023/05/19 04:01:08;;;;;;;27.05;15.57;;;12.10;99.90;;;;;;4997042;28;20056;-58
2023/05/19 04:03:34;;;;;;;24.13;15.18;;;12.10;99.90;;;;;;5014589;28;20026;-58
2023/05/19 04:06:01;;;;;;;28.27;15.73;;;12.20;99.90;;;;;;4996909;28;20492;-58
2023/05/19 04:08:27;;;;;;;24.88;15.73;;;12.20;99.90;;;;;;5017998;28;20049;-59
2023/05/19 04:10:53;;;;;;;26.77;15.95;;;12.20;99.90;;;;;;5000659;28;20041;-59
2023/05/19 04:13:20;;;;;;;24.95;15.63;;;12.30;99.90;;;;;;5018444;28;20026;-58
2023/05/19 04:15:46;;;;;;;22.08;15.32;;;12.30;99.90;;;;;;5018268;28;20061;-59
2023/05/19 04:18:12;;;;;;;25.52;16.05;;;12.30;99.90;;;;;;5018183;28;20392;-59
2023/05/19 04:20:39;;;;;;;28.92;16.38;;;12.20;99.90;;;;;;5018207;28;20025;-59
2023/05/19 04:23:05;;;;;;;27.48;16.90;;;12.20;99.90;;;;;;5000381;28;20399;-59
2023/05/19 04:25:32;;;;;;;31.92;16.75;;;12.30;99.90;;;;;;5018138;28;20030;-59
2023/05/19 04:27:59;;;;;;;35.63;18.38;;;12.30;99.90;;;;;;5018125;28;20018;-58
2023/05/19 04:30:27;;;;;;;31.10;18.58;;;12.30;99.90;;;;;;5000119;28;20026;-58
2023/05/19 04:32:56;;;;;;;39.55;20.90;;;12.30;99.90;;;;;;5000195;28;20045;-58
2023/05/19 04:35:23;;;;;;;40.95;20.95;;;12.30;99.90;;;;;;5000313;28;20076;-59
2023/05/19 04:37:53;;;;;;;35.45;20.08;;;12.40;99.90;;;;;;5000309;28;20065;-59
2023/05/19 04:40:22;;;;;;;44.25;24.50;;;12.40;99.90;;;;;;5000355;28;20034;-59
2023/05/19 04:42:51;;;;;;;52.08;24.38;;;12.50;99.90;;;;;;5000266;28;20036;-59
2023/05/19 04:45:18;;;;;;;45.70;25.55;;;12.40;99.90;;;;;;4999802;28;20491;-58
2023/05/19 04:47:47;;;;;;;83.95;33.28;;;12.40;99.90;;;;;;5000038;28;20030;-59
2023/05/19 04:50:15;;;;;;;81.90;31.80;;;12.40;99.90;;;;;;5017486;28;20017;-59
2023/05/19 04:52:44;;;;;;;76.55;31.25;;;12.50;99.90;;;;;;5017434;28;20384;-58
2023/05/19 04:55:10;;;;;;;94.90;35.63;;;12.50;99.90;;;;;;5017613;28;20041;-59
2023/05/19 04:57:37;;;;;;;188.52;50.28;;;12.50;99.90;;;;;;4999822;28;20033;-59
2023/05/19 05:00:10;;;;;;;168.63;46.13;;;12.60;99.90;;;;;;4999869;28;20161;-59
2023/05/19 05:02:45;;;;;;;201.13;50.63;;;12.80;99.90;;;;;;4999880;28;20048;-58
2023/05/19 05:05:12;;;;;;;209.63;53.22;;;12.80;99.90;;;;;;4999535;28;20038;-59
2023/05/19 05:07:38;;;;;;;214.07;57.30;;;12.70;99.90;;;;;;5017299;28;20025;-59
2023/05/19 05:10:05;;;;;;;200.73;49.85;;;12.70;99.90;;;;;;4999551;28;20084;-59
2023/05/19 05:12:32;;;;;;;194.75;54.63;;;12.70;99.90;;;;;;4999016;28;20046;-59
2023/05/19 05:14:58;;;;;;;216.68;54.17;;;12.70;99.90;;;;;;5017146;28;20034;-59
2023/05/19 05:17:27;;;;;;;176.23;47.25;;;12.60;99.90;;;;;;5000124;28;20030;-59
2023/05/19 05:19:53;;;;;;;149.43;42.78;;;12.60;99.90;;;;;;5016241;28;20053;-59
2023/05/19 05:22:20;;;;;;;98.03;34.08;;;12.60;99.90;;;;;;4999492;28;20030;-59
2023/05/19 05:24:46;;;;;;;100.35;32.50;;;12.60;99.90;;;;;;4999244;28;20499;-59
2023/05/19 05:27:15;;;;;;;104.72;34.28;;;12.70;99.90;;;;;;5007085;28;20083;-58
2023/05/19 05:29:44;;;;;;;108.63;34.40;;;12.80;99.90;;;;;;5013546;28;20056;-58
2023/05/19 05:32:11;;;;;;;103.07;34.20;;;12.80;99.90;;;;;;5015544;28;20403;-59
2023/05/19 05:34:39;;;;;;;108.65;35.33;;;12.90;99.90;;;;;;5015227;28;20472;-58
2023/05/19 05:37:05;;;;;;;64.38;27.60;;;12.90;99.90;;;;;;5015662;28;20058;-58
2023/05/19 05:39:31;;;;;;;62.67;27.10;;;12.90;99.90;;;;;;5015416;28;20364;-58
2023/05/19 05:41:58;;;;;;;55.33;27.15;;;12.90;99.90;;;;;;5015143;28;20036;-58
2023/05/19 05:44:24;;;;;;;51.28;24.90;;;12.90;99.90;;;;;;5017554;28;20638;-58
2023/05/19 05:46:51;;;;;;;53.33;25.15;;;12.80;99.90;;;;;;5018140;28;20025;-58
2023/05/19 05:49:17;;;;;;;55.20;24.73;;;13.00;99.90;;;;;;5018357;28;20025;-59
2023/05/19 05:51:45;;;;;;;77.35;30.05;;;13.20;99.90;;;;;;5018175;28;20091;-59
2023/05/19 05:54:12;;;;;;;87.70;31.75;;;13.10;99.90;;;;;;5036251;28;20691;-58
2023/05/19 05:56:43;;;;;;;90.85;33.53;;;13.20;99.90;;;;;;5018008;28;20095;-59
2023/05/19 05:59:12;;;;;;;83.63;32.05;;;13.40;99.90;;;;;;5014827;28;20026;-58
2023/05/19 06:01:40;;;;;;;98.07;33.22;;;13.40;99.90;;;;;;5015036;28;20069;-59
2023/05/19 06:04:09;;;;;;;97.45;31.90;;;13.60;99.90;;;;;;5014649;28;20030;-59
2023/05/19 06:06:36;;;;;;;90.53;29.45;;;13.60;99.90;;;;;;5016155;28;20087;-59
2023/05/19 06:09:06;;;;;;;91.88;32.42;;;13.70;99.90;;;;;;5014691;28;20037;-61
2023/05/19 06:11:35;;;;;;;86.68;30.90;;;13.60;99.90;;;;;;5014418;28;20403;-61
2023/05/19 06:14:06;;;;;;;95.63;32.40;;;13.70;99.90;;;;;;5016056;28;20026;-61
2023/05/19 06:16:53;;;;;;;91.28;31.98;;;13.70;99.90;;;;;;5013246;28;20033;-60
2023/05/19 06:19:20;;;;;;;85.55;31.65;;;13.60;99.90;;;;;;5017747;28;20025;-61
2023/05/19 06:21:50;;;;;;;82.03;31.23;;;13.70;99.90;;;;;;5035457;28;20040;-61
2023/05/19 06:24:16;;;;;;;72.05;30.00;;;13.80;99.90;;;;;;5017406;28;20103;-60
2023/05/19 06:26:42;;;;;;;75.25;29.08;;;14.00;99.90;;;;;;5024836;28;20049;-61
2023/05/19 06:29:09;;;;;;;59.47;28.52;;;14.00;99.90;;;;;;4997850;28;20037;-61
2023/05/19 06:31:35;;;;;;;67.85;28.85;;;14.00;99.90;;;;;;4996509;28;20042;-61
2023/05/19 06:34:16;;;;;;;73.88;29.73;;;14.00;99.90;;;;;;5009372;28;20555;-61
2023/05/19 06:36:42;;;;;;;59.78;27.63;;;14.00;99.90;;;;;;5017523;28;20037;-60
2023/05/19 06:39:12;;;;;;;57.92;25.92;;;13.90;99.90;;;;;;5017147;28;20025;-61
2023/05/19 06:41:38;;;;;;;57.30;27.88;;;14.00;99.90;;;;;;5017390;28;20085;-61
2023/05/19 06:44:09;;;;;;;55.83;28.20;;;14.20;99.90;;;;;;5015698;28;20482;-61
2023/05/19 06:46:35;;;;;;;59.55;27.77;;;14.30;99.90;;;;;;5015450;28;20109;-61
2023/05/19 06:49:01;;;;;;;51.75;25.73;;;14.40;99.90;;;;;;4997393;28;20113;-60
2023/05/19 06:51:31;;;;;;;43.88;22.40;;;14.50;99.90;;;;;;5016713;28;20021;-61
2023/05/19 06:53:58;;;;;;;43.67;23.15;;;14.50;99.90;;;;;;5017033;28;20045;-61
2023/05/19 06:56:25;;;;;;;34.50;21.50;;;14.70;99.90;;;;;;5016948;28;20490;-61
2023/05/19 06:58:51;;;;;;;37.35;21.55;;;14.60;99.90;;;;;;5016945;28;20124;-60
2023/05/19 07:01:20;;;;;;;52.63;27.35;;;14.60;99.90;;;;;;5017115;28;20029;-61
2023/05/19 07:03:52;;;;;;;49.55;25.70;;;14.70;99.90;;;;;;5017009;28;20095;-61
2023/05/19 07:06:20;;;;;;;45.58;23.83;;;14.80;99.90;;;;;;5016947;28;20553;-61
2023/05/19 07:08:46;;;;;;;45.45;23.67;;;14.90;99.90;;;;;;5016354;28;20025;-61
2023/05/19 07:11:12;;;;;;;45.75;23.63;;;15.10;99.90;;;;;;5010958;28;20226;-60
2023/05/19 07:13:40;;;;;;;55.45;25.40;;;15.10;99.90;;;;;;5011603;28;20467;-61
2023/05/19 07:16:07;;;;;;;42.72;23.00;;;15.10;99.90;;;;;;5012221;28;20483;-61
2023/05/19 07:18:34;;;;;;;42.63;22.13;;;15.10;99.90;;;;;;5012364;28;20076;-61
2023/05/19 07:21:00;;;;;;;44.80;23.88;;;15.10;99.90;;;;;;5013330;28;20026;-61
2023/05/19 07:23:26;;;;;;;46.40;24.00;;;15.10;99.90;;;;;;5013407;28;20026;-61
2023/05/19 07:25:55;;;;;;;54.53;27.17;;;15.10;99.90;;;;;;5011389;28;20383;-61
2023/05/19 07:28:21;;;;;;;44.20;25.08;;;15.10;99.90;;;;;;4994973;28;20377;-60
2023/05/19 07:30:48;;;;;;;41.20;24.58;;;15.00;99.90;;;;;;4995031;28;20106;-61
2023/05/19 07:33:14;;;;;;;55.45;27.13;;;15.10;99.90;;;;;;4995315;28;20101;-61
2023/05/19 07:35:40;;;;;;;59.80;27.77;;;15.10;99.90;;;;;;4995040;28;20265;-61
2023/05/19 07:38:06;;;;;;;58.00;26.40;;;15.10;99.90;;;;;;4995145;28;20150;-61
2023/05/19 07:40:32;;;;;;;53.58;26.63;;;15.00;99.90;;;;;;4994808;28;20309;-61
2023/05/19 07:42:58;;;;;;;69.22;29.48;;;15.10;99.90;;;;;;4994182;28;20058;-61
2023/05/19 07:45:24;;;;;;;69.43;29.40;;;15.30;99.90;;;;;;4994647;28;20065;-61
2023/05/19 07:47:52;;;;;;;66.90;27.45;;;15.10;99.90;;;;;;4994775;28;20460;-61
2023/05/19 07:50:18;;;;;;;64.75;31.25;;;15.10;99.90;;;;;;4994587;28;20464;-61
2023/05/19 07:52:44;;;;;;;71.68;32.47;;;15.00;99.90;;;;;;4994627;28;20072;-61
2023/05/19 07:55:10;;;;;;;59.40;29.05;;;15.10;99.90;;;;;;4993347;28;20038;-61
2023/05/19 07:57:36;;;;;;;55.67;25.27;;;15.00;99.90;;;;;;4994662;28;20022;-61
2023/05/19 08:00:08;;;;;;;68.72;35.00;;;15.10;99.90;;;;;;4994864;28;20070;-61
2023/05/19 08:02:37;;;;;;;96.78;53.05;;;15.00;99.90;;;;;;4994603;28;20081;-61
2023/05/19 08:05:03;;;;;;;66.78;33.70;;;15.00;99.90;;;;;;4994510;28;20074;-61
2023/05/19 08:07:29;;;;;;;69.47;32.05;;;15.00;99.90;;;;;;4994022;28;20023;-61
2023/05/19 08:09:56;;;;;;;54.60;27.60;;;15.10;99.90;;;;;;4994035;28;20391;-61
2023/05/19 08:12:21;;;;;;;62.83;31.27;;;15.10;99.90;;;;;;5011872;28;20046;-61
2023/05/19 08:14:48;;;;;;;62.78;27.67;;;15.10;99.90;;;;;;5014165;28;20124;-61
2023/05/19 08:17:13;;;;;;;51.58;26.58;;;15.20;99.90;;;;;;5013974;28;20026;-61
2023/05/19 08:19:39;;;;;;;63.20;29.17;;;15.20;99.90;;;;;;5014187;28;20089;-61
2023/05/19 08:22:05;;;;;;;63.03;28.23;;;15.10;99.90;;;;;;5014172;28;20539;-61
2023/05/19 08:24:32;;;;;;;61.47;28.80;;;15.20;99.90;;;;;;5013634;28;20053;-61
2023/05/19 08:26:58;;;;;;;59.20;27.83;;;15.20;99.90;;;;;;5013633;28;20066;-61
2023/05/19 08:29:27;;;;;;;71.82;29.40;;;15.10;99.90;;;;;;5013530;28;20026;-61
2023/05/19 08:31:54;;;;;;;59.88;28.25;;;15.10;99.90;;;;;;5013728;28;20117;-61
2023/05/19 08:34:21;;;;;;;77.70;33.00;;;15.10;99.90;;;;;;5013902;28;20034;-60
2023/05/19 08:36:47;;;;;;;86.15;35.97;;;15.10;99.90;;;;;;5013941;28;20025;-62
2023/05/19 08:39:15;;;;;;;81.63;33.58;;;15.20;99.90;;;;;;5013663;28;20064;-61
2023/05/19 08:41:41;;;;;;;91.57;36.30;;;15.20;99.90;;;;;;5014005;28;20061;-61
2023/05/19 08:44:07;;;;;;;94.53;36.33;;;15.20;99.90;;;;;;5013904;28;20137;-62
2023/05/19 08:46:40;;;;;;;104.28;36.90;;;15.10;99.90;;;;;;5013570;28;20551;-61
2023/05/19 08:49:12;;;;;;;119.05;42.50;;;15.10;99.90;;;;;;5013727;28;20053;-61
2023/05/19 08:52:15;;;;;;;119.22;40.90;;;15.20;99.90;;;;;;5013886;28;20082;-61
2023/05/19 08:54:59;;;;;;;115.85;40.78;;;15.20;99.90;;;;;;5015672;28;20026;-61
2023/05/19 08:57:26;;;;;;;132.80;44.42;;;15.10;99.90;;;;;;5018431;28;20120;-61
2023/05/19 08:59:54;;;;;;;130.10;43.35;;;15.10;99.90;;;;;;5037871;28;20037;-61
2023/05/19 09:02:22;;;;;;;106.75;37.88;;;15.10;99.90;;;;;;5037486;28;20025;-61
2023/05/19 09:04:48;;;;;;;127.20;43.08;;;15.10;99.90;;;;;;5030702;28;20025;-60
2023/05/19 09:07:14;;;;;;;139.30;46.53;;;15.00;99.90;;;;;;5017884;28;20109;-61
2023/05/19 09:09:42;;;;;;;128.65;44.92;;;15.00;99.90;;;;;;5017348;28;20144;-62
2023/05/19 09:12:12;;;;;;;138.85;46.13;;;15.00;99.90;;;;;;5017704;28;20042;-61
2023/05/19 09:14:38;;;;;;;135.63;45.33;;;15.10;99.90;;;;;;5016799;28;20038;-61
2023/05/19 09:17:05;;;;;;;150.32;45.80;;;15.10;99.90;;;;;;5017055;28;20038;-61
2023/05/19 09:19:31;;;;;;;123.18;43.10;;;15.20;99.90;;;;;;5017056;28;20030;-61
2023/05/19 09:22:03;;;;;;;123.18;42.60;;;15.40;99.90;;;;;;5016648;28;20078;-61
2023/05/19 09:24:30;;;;;;;103.35;39.10;;;15.40;99.90;;;;;;5016694;28;20034;-61
2023/05/19 09:26:56;;;;;;;116.22;42.30;;;15.40;99.90;;;;;;5016624;28;20022;-62
2023/05/19 09:29:23;;;;;;;98.13;38.85;;;15.50;99.90;;;;;;5015710;28;20029;-61
2023/05/19 09:31:59;;;;;;;109.50;39.88;;;15.60;99.90;;;;;;5016555;28;20029;-61
2023/05/19 09:34:25;;;;;;;91.07;35.60;;;15.60;99.90;;;;;;5016442;28;20030;-61
2023/05/19 09:36:52;;;;;;;90.57;36.03;;;15.60;99.90;;;;;;5016485;28;20436;-62
2023/05/19 09:39:27;;;;;;;99.50;36.22;;;15.70;99.90;;;;;;5016287;28;20523;-61
2023/05/19 09:41:57;;;;;;;92.70;37.40;;;15.40;99.90;;;;;;5016287;28;20360;-61
2023/05/19 09:44:30;;;;;;;103.90;38.17;;;15.50;99.90;;;;;;5016411;28;20457;-61
2023/05/19 09:46:57;;;;;;;85.63;35.50;;;15.50;99.90;;;;;;5016016;28;20025;-61
2023/05/19 09:49:31;;;;;;;92.03;38.35;;;15.60;99.90;;;;;;5016156;28;20030;-60
2023/05/19 09:52:01;;;;;;;97.40;39.08;;;15.80;99.90;;;;;;5016263;28;20030;-61
2023/05/19 09:54:28;;;;;;;91.40;37.33;;;15.70;99.90;;;;;;5015831;28;20412;-61
2023/05/19 09:57:02;;;;;;;98.22;39.80;;;15.80;99.90;;;;;;5016124;28;20034;-61
2023/05/19 09:59:29;;;;;;;87.50;37.90;;;15.70;99.90;;;;;;4996565;28;20034;-61
2023/05/19 10:02:00;;;;;;;107.15;39.78;;;15.80;99.90;;;;;;4995953;28;20045;-61
2023/05/19 10:04:30;;;;;;;108.07;40.08;;;15.80;99.90;;;;;;4996315;28;20026;-61
2023/05/19 10:07:00;;;;;;;107.47;41.05;;;15.80;99.90;;;;;;4996270;28;20073;-61
2023/05/19 10:09:27;;;;;;;113.63;40.90;;;15.90;99.90;;;;;;4978515;28;20042;-61
2023/05/19 10:11:55;;;;;;;121.50;41.67;;;15.90;99.90;;;;;;4996116;28;20303;-61
2023/05/19 10:14:28;;;;;;;120.85;42.03;;;16.00;99.90;;;;;;4996568;28;20030;-61
2023/05/19 10:16:56;;;;;;;129.60;43.90;;;16.00;99.90;;;;;;4995981;28;20038;-62
2023/05/19 10:19:29;;;;;;;111.32;41.58;;;16.00;99.90;;;;;;4996186;28;20030;-60
2023/05/19 10:22:21;;;;;;;103.00;40.58;;;16.00;99.90;;;;;;4977618;28;20499;-61
2023/05/19 10:25:20;;;;;;;103.72;39.47;;;16.00;99.90;;;;;;4995995;28;20054;-61
2023/05/19 10:28:45;;;;;;;119.50;41.97;;;16.00;99.90;;;;;;4982999;28;20080;-61
2023/05/19 10:31:26;;;;;;;94.45;39.83;;;15.90;99.90;;;;;;5015553;28;20072;-61
2023/05/19 10:34:12;;;;;;;107.35;39.10;;;15.90;99.90;;;;;;5014293;28;20095;-61
2023/05/19 10:36:46;;;;;;;101.13;39.03;;;15.80;99.90;;;;;;4995994;28;20045;-62
2023/05/19 10:39:24;;;;;;;98.07;38.00;;;15.80;99.90;;;;;;4995731;28;20440;-61
2023/05/19 10:42:14;;;;;;;108.40;39.10;;;15.90;99.90;;;;;;4995803;28;20365;-61
2023/05/19 10:45:14;;;;;;;107.20;39.00;;;16.00;99.90;;;;;;5002440;28;20038;-61
2023/05/19 10:48:01;;;;;;;113.97;40.70;;;16.10;99.90;;;;;;5015159;28;20487;-62
2023/05/19 10:50:36;;;;;;;109.03;38.30;;;16.30;99.90;;;;;;4997382;28;20050;-62
2023/05/19 10:53:02;;;;;;;94.50;36.83;;;16.60;99.90;;;;;;4997548;28;20025;-62
2023/05/19 10:55:50;;;;;;;97.40;38.50;;;16.70;99.90;;;;;;5015034;28;20476;-61
2023/05/19 10:58:37;;;;;;;100.40;37.60;;;17.00;99.90;;;;;;5015496;28;20038;-61
2023/05/19 11:01:08;;;;;;;92.15;39.83;;;17.20;99.90;;;;;;5014997;28;20061;-61
2023/05/19 11:03:52;;;;;;;109.75;47.10;;;17.60;99.90;;;;;;5015129;28;20435;-61
2023/05/19 11:06:24;;;;;;;72.80;33.08;;;18.20;99.90;;;;;;5015169;28;20030;-61
2023/05/19 11:08:53;;;;;;;65.78;28.30;;;18.20;99.90;;;;;;5014745;28;20140;-62
2023/05/19 11:11:20;;;;;;;63.25;30.92;;;18.30;99.90;;;;;;5014793;28;20500;-61
2023/05/19 11:13:50;;;;;;;61.60;30.13;;;18.80;99.90;;;;;;5015121;28;20068;-62
2023/05/19 11:16:27;;;;;;;52.40;27.35;;;19.20;99.90;;;;;;5014159;28;20037;-62
2023/05/19 11:18:57;;;;;;;56.85;26.90;;;19.40;99.90;;;;;;5013608;28;20049;-62
2023/05/19 11:21:23;;;;;;;50.40;26.27;;;19.70;99.90;;;;;;5014914;28;20036;-61
2023/05/19 11:23:51;;;;;;;46.17;25.25;;;20.40;99.90;;;;;;5014557;28;20104;-61
2023/05/19 11:26:43;;;;;;;53.13;27.60;;;20.70;98.70;;;;;;5015079;28;20032;-62
2023/05/19 11:29:10;;;;;;;45.70;23.65;;;20.30;97.10;;;;;;5014632;28;20025;-61
2023/05/19 11:31:37;;;;;;;40.47;20.05;;;21.10;97.90;;;;;;5014904;28;20113;-62
2023/05/19 11:34:06;;;;;;;35.22;20.92;;;21.00;93.00;;;;;;5014607;28;20059;-61
2023/05/19 11:36:33;;;;;;;38.63;21.50;;;21.50;94.80;;;;;;4994961;28;20488;-62
2023/05/19 11:39:01;;;;;;;32.90;20.08;;;22.10;94.10;;;;;;4995068;28;20038;-62
2023/05/19 11:41:29;;;;;;;36.58;21.48;;;22.40;92.30;;;;;;4995059;28;20091;-62
2023/05/19 11:43:55;;;;;;;29.05;18.40;;;22.70;91.10;;;;;;4994679;28;20513;-62
2023/05/19 11:46:21;;;;;;;30.25;18.63;;;22.50;87.90;;;;;;5014445;28;20030;-63
2023/05/19 11:48:47;;;;;;;28.70;16.58;;;22.90;89.70;;;;;;5014580;28;20022;-63
2023/05/19 11:51:13;;;;;;;25.38;17.30;;;22.40;88.40;;;;;;5014332;28;20026;-63
2023/05/19 11:53:39;;;;;;;26.05;16.88;;;23.00;88.50;;;;;;5014367;28;20072;-63
2023/05/19 11:56:05;;;;;;;24.90;16.33;;;23.30;85.10;;;;;;5014793;28;20036;-62
2023/05/19 11:58:31;;;;;;;27.00;15.55;;;23.60;83.40;;;;;;5014361;28;20022;-63
2023/05/19 12:01:02;;;;;;;26.15;15.25;;;23.70;81.30;;;;;;5014133;28;20036;-63
2023/05/19 12:03:31;;;;;;;23.27;14.77;;;23.40;86.20;;;;;;5014316;28;20030;-63
2023/05/19 12:05:57;;;;;;;25.55;15.40;;;23.30;75.90;;;;;;5014227;28;20440;-63
2023/05/19 12:08:24;;;;;;;21.50;15.00;;;23.00;80.00;;;;;;5014266;28;20058;-63
2023/05/19 12:10:51;;;;;;;21.48;15.43;;;22.40;78.40;;;;;;5013894;28;20472;-63
2023/05/19 12:13:32;;;;;;;24.27;16.33;;;23.10;78.60;;;;;;5013804;28;20033;-61
2023/05/19 12:16:21;;;;;;;29.10;17.25;;;23.40;80.90;;;;;;5013443;28;20045;-61
2023/05/19 12:19:08;;;;;;;26.25;15.80;;;22.70;76.90;;;;;;5012755;28;20437;-61
2023/05/19 12:21:34;;;;;;;29.58;16.40;;;22.70;75.00;;;;;;5013077;28;20034;-61
2023/05/19 12:24:01;;;;;;;29.10;15.18;;;23.10;74.60;;;;;;5013803;28;20034;-60
2023/05/19 12:26:27;;;;;;;30.42;15.80;;;22.10;77.10;;;;;;5013781;28;20371;-60
2023/05/19 12:28:54;;;;;;;25.63;15.80;;;23.00;78.10;;;;;;5014767;28;20030;-61
2023/05/19 12:31:23;;;;;;;19.77;14.77;;;23.30;77.00;;;;;;5017655;28;20021;-60
2023/05/19 12:33:52;;;;;;;30.35;15.20;;;22.90;74.70;;;;;;5017749;28;20026;-61
2023/05/19 12:36:18;;;;;;;21.75;14.30;;;22.70;74.70;;;;;;5017759;28;20033;-61
2023/05/19 12:38:46;;;;;;;23.25;15.57;;;23.50;75.80;;;;;;5018221;28;20084;-61